Time;durP1;ratioP1;P1;durP2;ratioP2;P2;SDS_P1;SDS_P2;PMS_P1;PMS_P2;Temp;Humidity;BMP_temperature;BMP_pressure;BME280_temperature;BME280_humidity;BME280_pressure;Samples;Min_cycle;Max_cycle;Signal;HPM_P1;HPM_P2
2023/05/01 00:01:39;;;;;;;8.07;2.63;;;10.20;99.90;;;;;;5059760;28;20058;-60
2023/05/01 00:04:06;;;;;;;13.52;2.55;;;10.30;99.90;;;;;;5066068;28;20052;-61
2023/05/01 00:06:34;;;;;;;10.02;2.45;;;10.30;99.90;;;;;;5049772;28;20049;-60
2023/05/01 00:09:02;;;;;;;8.93;2.70;;;10.30;99.90;;;;;;5051890;28;20514;-60
2023/05/01 00:11:30;;;;;;;12.88;2.47;;;10.30;99.90;;;;;;5068755;28;20059;-62
2023/05/01 00:13:57;;;;;;;9.63;2.67;;;10.30;99.90;;;;;;5069386;28;20867;-60
2023/05/01 00:16:25;;;;;;;10.75;2.10;;;10.30;99.90;;;;;;5069314;28;20517;-60
2023/05/01 00:18:53;;;;;;;14.63;2.65;;;10.30;99.90;;;;;;5069388;28;20052;-60
2023/05/01 00:21:21;;;;;;;11.60;3.45;;;10.30;99.90;;;;;;5052222;28;20041;-60
2023/05/01 00:23:49;;;;;;;11.20;2.30;;;10.30;99.90;;;;;;5052389;28;20049;-60
2023/05/01 00:26:17;;;;;;;7.80;2.70;;;10.30;99.90;;;;;;5056596;28;20040;-62
2023/05/01 00:28:47;;;;;;;;;;;10.30;99.90;;;;;;5067914;28;20048;-63
2023/05/01 00:31:14;;;;;;;10.65;2.78;;;10.30;99.90;;;;;;5061387;28;19925;-63
2023/05/01 00:33:42;;;;;;;14.38;3.47;;;10.30;99.90;;;;;;5061556;28;20053;-62
2023/05/01 00:36:13;;;;;;;11.00;2.60;;;10.30;99.90;;;;;;5064678;28;20040;-61
2023/05/01 00:38:40;;;;;;;9.73;2.55;;;10.20;99.90;;;;;;5055530;28;20041;-61
2023/05/01 00:41:08;;;;;;;12.07;2.70;;;10.20;99.90;;;;;;5067362;28;20055;-60
2023/05/01 00:43:35;;;;;;;15.55;2.75;;;10.20;99.90;;;;;;5067565;28;20051;-60
2023/05/01 00:46:03;;;;;;;11.35;3.00;;;10.20;99.90;;;;;;5066258;28;20035;-62
2023/05/01 00:48:31;;;;;;;14.45;2.20;;;10.20;99.90;;;;;;5066489;28;20053;-60
2023/05/01 00:51:04;;;;;;;15.18;2.92;;;10.20;99.90;;;;;;5049418;28;20041;-61
2023/05/01 00:53:32;;;;;;;13.70;3.63;;;10.20;99.90;;;;;;5001952;28;20049;-60
2023/05/01 00:56:01;;;;;;;10.48;2.85;;;10.20;99.90;;;;;;5046799;28;20037;-61
2023/05/01 00:58:29;;;;;;;12.32;3.10;;;10.20;99.90;;;;;;5047513;28;20461;-60
2023/05/01 01:00:56;;;;;;;11.13;3.08;;;10.20;99.90;;;;;;5025672;28;20033;-60
2023/05/01 01:03:24;;;;;;;12.10;3.88;;;10.20;99.90;;;;;;5017298;28;20049;-60
2023/05/01 01:06:18;;;;;;;7.97;2.35;;;10.20;99.90;;;;;;5028370;28;20317;-61
2023/05/01 01:08:59;;;;;;;11.98;2.58;;;10.20;99.90;;;;;;5033668;28;20053;-59
2023/05/01 01:11:37;;;;;;;13.63;2.90;;;10.20;99.90;;;;;;5026112;28;20041;-59
2023/05/01 01:14:18;;;;;;;11.23;2.90;;;10.20;99.90;;;;;;5037371;28;20052;-59
2023/05/01 01:17:18;;;;;;;10.57;4.00;;;10.20;99.90;;;;;;5009668;28;20052;-60
2023/05/01 01:20:25;;;;;;;11.45;2.75;;;10.30;99.90;;;;;;5047192;28;20044;-64
2023/05/01 01:23:00;;;;;;;13.32;2.72;;;10.30;99.90;;;;;;5029318;28;20053;-63
2023/05/01 01:26:10;;;;;;;7.40;2.90;;;10.20;99.90;;;;;;5011068;28;20064;-65
2023/05/01 01:28:50;;;;;;;13.88;3.92;;;10.30;99.90;;;;;;4995437;28;20051;-60
2023/05/01 01:31:29;;;;;;;7.25;3.20;;;10.30;99.90;;;;;;5032247;28;20037;-61
2023/05/01 01:34:03;;;;;;;10.98;3.25;;;10.30;99.90;;;;;;5044457;28;20495;-60
2023/05/01 01:36:39;;;;;;;13.45;3.58;;;10.30;99.90;;;;;;5051197;28;20045;-59
2023/05/01 01:39:31;;;;;;;13.77;4.35;;;10.30;99.90;;;;;;5019190;28;20052;-60
2023/05/01 01:42:02;;;;;;;8.60;2.85;;;10.30;99.90;;;;;;5040419;28;20505;-60
2023/05/01 01:44:43;;;;;;;14.38;3.45;;;10.30;99.90;;;;;;5032012;28;20532;-61
2023/05/01 01:47:13;;;;;;;9.57;2.80;;;10.30;99.90;;;;;;5046961;28;20045;-59
2023/05/01 01:49:47;;;;;;;9.80;2.90;;;10.30;99.90;;;;;;5030726;28;20052;-59
2023/05/01 01:52:16;;;;;;;10.00;3.97;;;10.30;99.90;;;;;;5052865;28;20056;-61
2023/05/01 01:54:49;;;;;;;8.50;3.22;;;10.20;99.90;;;;;;5065768;28;20055;-59
2023/05/01 01:57:20;;;;;;;9.80;3.30;;;10.20;99.90;;;;;;5062511;28;20045;-59
2023/05/01 01:59:50;;;;;;;11.25;3.53;;;10.20;99.90;;;;;;5062418;28;20059;-61
2023/05/01 02:02:19;;;;;;;13.85;4.00;;;10.20;99.90;;;;;;5067383;28;20614;-59
2023/05/01 02:04:48;;;;;;;12.82;3.03;;;10.20;99.90;;;;;;5053435;28;21077;-59
2023/05/01 02:07:18;;;;;;;12.63;2.80;;;10.20;99.90;;;;;;5068510;28;20056;-59
2023/05/01 02:09:47;;;;;;;12.27;3.17;;;10.10;99.90;;;;;;5063928;28;20041;-59
2023/05/01 02:12:17;;;;;;;8.60;2.60;;;10.10;99.90;;;;;;5068749;28;20041;-59
2023/05/01 02:14:46;;;;;;;13.70;3.92;;;10.10;99.90;;;;;;5078975;28;20598;-60
2023/05/01 02:17:14;;;;;;;12.27;2.90;;;10.00;99.90;;;;;;5057732;28;20067;-60
2023/05/01 02:19:44;;;;;;;14.68;3.30;;;10.00;99.90;;;;;;5059603;28;20630;-58
2023/05/01 02:22:16;;;;;;;7.78;3.03;;;9.90;99.90;;;;;;5069205;28;20045;-60
2023/05/01 02:24:45;;;;;;;14.60;3.78;;;9.90;99.90;;;;;;5054201;28;20044;-60
2023/05/01 02:27:59;;;;;;;11.80;3.40;;;9.90;99.90;;;;;;5052944;28;20053;-60
2023/05/01 02:30:27;;;;;;;13.52;3.50;;;9.90;99.90;;;;;;5053585;28;20048;-59
2023/05/01 02:32:56;;;;;;;16.50;3.85;;;9.90;99.90;;;;;;5073384;28;20442;-61
2023/05/01 02:35:24;;;;;;;14.90;3.70;;;10.00;99.90;;;;;;5072145;28;20044;-59
2023/05/01 02:37:52;;;;;;;9.98;3.38;;;9.90;99.90;;;;;;5054658;28;20627;-61
2023/05/01 02:40:20;;;;;;;15.85;5.00;;;10.00;99.90;;;;;;5067064;28;20055;-58
2023/05/01 02:42:50;;;;;;;14.35;4.40;;;10.00;99.90;;;;;;5073336;28;20602;-59
2023/05/01 02:45:21;;;;;;;8.18;3.67;;;10.00;99.90;;;;;;5065263;28;20049;-61
2023/05/01 02:47:52;;;;;;;12.68;3.47;;;10.00;99.90;;;;;;5066901;28;20044;-58
2023/05/01 02:50:22;;;;;;;11.73;3.60;;;10.00;99.90;;;;;;5071376;28;20045;-59
2023/05/01 02:52:50;;;;;;;11.57;3.83;;;10.00;99.90;;;;;;5051078;28;20484;-61
2023/05/01 02:55:43;;;;;;;11.63;4.63;;;10.00;99.90;;;;;;5048638;28;20052;-61
2023/05/01 02:58:15;;;;;;;12.88;3.88;;;10.10;99.90;;;;;;5035297;28;20056;-60
2023/05/01 03:00:44;;;;;;;15.38;3.75;;;10.10;99.90;;;;;;5050151;28;20038;-58
2023/05/01 03:03:12;;;;;;;8.15;2.95;;;10.10;99.90;;;;;;5035805;28;20044;-61
2023/05/01 03:05:40;;;;;;;8.38;3.03;;;10.20;99.90;;;;;;5045368;28;20049;-61
2023/05/01 03:08:10;;;;;;;9.32;3.33;;;10.20;99.90;;;;;;5044070;28;20041;-60
2023/05/01 03:10:42;;;;;;;9.68;3.00;;;10.20;99.90;;;;;;5033127;28;20037;-60
2023/05/01 03:13:10;;;;;;;11.30;3.17;;;10.30;99.90;;;;;;5022703;28;20057;-61
2023/05/01 03:15:38;;;;;;;7.90;2.88;;;10.30;99.90;;;;;;5027461;28;20037;-60
2023/05/01 03:18:06;;;;;;;11.90;3.03;;;10.30;99.90;;;;;;5040030;28;20063;-59
2023/05/01 03:20:34;;;;;;;10.15;3.22;;;10.30;99.90;;;;;;5031082;28;20053;-59
2023/05/01 03:23:03;;;;;;;10.80;3.63;;;10.30;99.90;;;;;;5047109;28;20060;-61
2023/05/01 03:25:32;;;;;;;8.18;3.22;;;10.30;99.90;;;;;;5029766;28;20036;-59
2023/05/01 03:28:03;;;;;;;9.93;3.60;;;10.30;99.90;;;;;;5047328;28;20064;-60
2023/05/01 03:30:33;;;;;;;10.40;3.42;;;10.40;99.90;;;;;;5052246;28;20053;-58
2023/05/01 03:33:02;;;;;;;14.23;4.00;;;10.30;99.90;;;;;;5016719;28;20045;-59
2023/05/01 03:35:31;;;;;;;9.32;3.33;;;10.30;99.90;;;;;;5035277;28;20041;-59
2023/05/01 03:38:00;;;;;;;15.48;3.42;;;10.40;99.90;;;;;;5035132;28;20044;-60
2023/05/01 03:40:48;;;;;;;11.93;3.55;;;10.30;99.90;;;;;;4994407;28;20437;-59
2023/05/01 03:43:34;;;;;;;8.85;3.40;;;10.40;99.90;;;;;;5043134;28;20041;-59
2023/05/01 03:46:07;;;;;;;7.50;3.42;;;10.30;99.90;;;;;;5035281;28;20041;-60
2023/05/01 03:48:34;;;;;;;13.85;3.58;;;10.30;99.90;;;;;;5048028;28;20052;-59
2023/05/01 03:51:03;;;;;;;10.15;3.35;;;10.30;99.90;;;;;;5040316;28;20048;-60
2023/05/01 03:53:32;;;;;;;10.02;3.70;;;10.30;99.90;;;;;;5061634;28;20041;-59
2023/05/01 03:56:04;;;;;;;9.65;3.65;;;10.30;99.90;;;;;;5068217;28;20049;-58
2023/05/01 03:58:32;;;;;;;8.27;3.00;;;10.30;99.90;;;;;;5069446;28;20048;-58
2023/05/01 04:00:59;;;;;;;12.68;3.67;;;10.40;99.90;;;;;;5063530;28;20500;-59
2023/05/01 04:03:27;;;;;;;9.48;2.40;;;10.30;99.90;;;;;;5069422;28;20412;-59
2023/05/01 04:05:56;;;;;;;8.50;3.10;;;10.30;99.90;;;;;;5065612;28;20041;-59
2023/05/01 04:08:24;;;;;;;13.07;3.40;;;10.40;99.90;;;;;;5069561;28;20513;-60
2023/05/01 04:10:51;;;;;;;8.93;3.33;;;10.40;99.90;;;;;;5070343;28;20059;-59
2023/05/01 04:13:20;;;;;;;13.98;4.75;;;10.30;99.90;;;;;;5063405;28;20036;-59
2023/05/01 04:15:47;;;;;;;14.35;3.45;;;10.40;99.90;;;;;;5071030;28;20045;-58
2023/05/01 04:18:15;;;;;;;8.20;2.92;;;10.40;99.90;;;;;;5061721;28;20071;-61
2023/05/01 04:20:43;;;;;;;8.90;3.05;;;10.40;99.90;;;;;;5071239;28;20063;-62
2023/05/01 04:23:11;;;;;;;7.53;3.28;;;10.40;99.90;;;;;;5067233;28;20032;-60
2023/05/01 04:25:39;;;;;;;7.80;2.30;;;10.40;99.90;;;;;;5079293;28;20054;-60
2023/05/01 04:28:12;;;;;;;7.88;3.38;;;10.40;99.90;;;;;;5068308;28;20045;-58
2023/05/01 04:30:40;;;;;;;9.07;2.90;;;10.40;99.90;;;;;;5067009;28;20051;-59
2023/05/01 04:33:10;;;;;;;7.90;2.67;;;10.40;99.90;;;;;;5071192;28;20036;-60
2023/05/01 04:35:40;;;;;;;11.82;3.03;;;10.40;99.90;;;;;;5071295;28;20475;-62
2023/05/01 04:38:09;;;;;;;7.30;2.58;;;10.40;99.90;;;;;;5053772;28;20047;-61
2023/05/01 04:40:38;;;;;;;10.73;3.53;;;10.40;99.90;;;;;;5071332;28;20041;-61
2023/05/01 04:43:05;;;;;;;8.60;2.88;;;10.40;99.90;;;;;;5070105;28;20044;-61
2023/05/01 04:45:34;;;;;;;10.80;2.80;;;10.40;99.90;;;;;;5071137;28;20051;-59
2023/05/01 04:48:02;;;;;;;6.55;2.72;;;10.40;99.90;;;;;;5064332;28;20040;-59
2023/05/01 04:50:29;;;;;;;9.93;2.10;;;10.40;99.90;;;;;;5046814;28;20511;-60
2023/05/01 04:52:58;;;;;;;8.95;2.53;;;10.40;99.90;;;;;;5018832;28;20041;-59
2023/05/01 04:55:25;;;;;;;7.30;2.55;;;10.40;99.90;;;;;;5031822;28;20044;-60
2023/05/01 04:58:06;;;;;;;8.40;3.00;;;10.40;99.90;;;;;;5013162;28;20052;-61
2023/05/01 05:00:35;;;;;;;4.90;2.40;;;10.40;99.90;;;;;;5021806;28;20044;-58
2023/05/01 05:03:06;;;;;;;9.63;2.45;;;10.30;99.90;;;;;;5016629;28;20526;-59
2023/05/01 05:05:35;;;;;;;8.77;2.88;;;10.30;99.90;;;;;;5015438;28;20060;-60
2023/05/01 05:08:06;;;;;;;8.73;2.92;;;10.40;99.90;;;;;;5031608;28;20473;-61
2023/05/01 05:10:35;;;;;;;;;;;10.40;99.90;;;;;;5013088;28;20064;-59
2023/05/01 05:13:29;;;;;;;9.82;2.90;;;10.40;99.90;;;;;;5013742;28;19920;-61
2023/05/01 05:16:03;;;;;;;7.95;2.60;;;;;;;;;;5030037;28;20037;-58
2023/05/01 05:18:31;;;;;;;9.55;3.03;;;10.40;99.90;;;;;;5026055;28;20045;-60
2023/05/01 05:21:03;;;;;;;8.77;2.50;;;10.40;99.90;;;;;;5022647;28;20053;-60
2023/05/01 05:23:31;;;;;;;8.27;2.38;;;10.40;99.90;;;;;;5041143;28;20056;-60
2023/05/01 05:26:00;;;;;;;10.52;2.78;;;10.50;99.90;;;;;;5013770;28;20045;-61
2023/05/01 05:28:31;;;;;;;7.95;2.47;;;10.50;99.90;;;;;;5040172;28;20492;-60
2023/05/01 05:30:59;;;;;;;6.10;2.70;;;10.50;99.90;;;;;;5031658;28;20041;-60
2023/05/01 05:33:28;;;;;;;8.93;2.50;;;10.50;99.90;;;;;;5021910;28;20045;-62
2023/05/01 05:35:59;;;;;;;3.95;2.20;;;10.60;99.90;;;;;;4992660;28;20045;-61
2023/05/01 05:38:32;;;;;;;4.28;2.33;;;10.60;99.90;;;;;;5022841;28;20045;-59
2023/05/01 05:41:05;;;;;;;8.88;2.65;;;10.60;99.90;;;;;;5035052;28;20045;-60
2023/05/01 05:43:33;;;;;;;9.48;2.47;;;10.60;99.90;;;;;;5017201;28;20046;-62
2023/05/01 05:46:01;;;;;;;9.52;2.72;;;10.70;99.90;;;;;;5010551;28;20055;-59
2023/05/01 05:48:33;;;;;;;7.13;2.72;;;10.70;99.90;;;;;;5022014;28;20044;-61
2023/05/01 05:51:02;;;;;;;8.45;2.63;;;10.70;99.90;;;;;;5032063;28;20170;-60
2023/05/01 05:53:35;;;;;;;7.15;3.53;;;10.70;99.90;;;;;;5053637;28;20059;-58
2023/05/01 05:56:03;;;;;;;11.23;2.40;;;10.80;99.90;;;;;;5057131;28;20041;-59
2023/05/01 05:58:31;;;;;;;5.28;2.60;;;10.80;99.90;;;;;;5051873;28;20044;-60
2023/05/01 06:00:59;;;;;;;5.10;2.38;;;10.90;99.90;;;;;;5065780;28;20045;-59
2023/05/01 06:03:27;;;;;;;7.35;2.28;;;10.90;99.90;;;;;;5057482;28;20063;-60
2023/05/01 06:06:00;;;;;;;8.18;2.70;;;11.00;99.90;;;;;;5052287;28;20033;-60
2023/05/01 06:08:29;;;;;;;6.65;2.65;;;11.00;99.90;;;;;;5055400;28;20072;-61
2023/05/01 06:10:57;;;;;;;7.82;2.42;;;11.10;99.90;;;;;;5055827;28;20214;-62
2023/05/01 06:13:26;;;;;;;9.63;3.05;;;11.10;99.90;;;;;;5065201;28;20048;-59
2023/05/01 06:15:54;;;;;;;6.65;2.38;;;11.10;99.90;;;;;;5064885;28;20051;-59
2023/05/01 06:18:22;;;;;;;7.15;3.03;;;11.20;99.90;;;;;;5063683;28;20048;-60
2023/05/01 06:20:51;;;;;;;8.88;2.95;;;11.20;99.90;;;;;;5064011;28;20075;-61
2023/05/01 06:23:18;;;;;;;5.95;2.97;;;11.30;99.90;;;;;;5055770;28;20041;-61
2023/05/01 06:25:59;;;;;;;10.07;2.80;;;11.30;99.90;;;;;;5064858;28;20049;-61
2023/05/01 06:28:27;;;;;;;5.32;2.28;;;11.40;99.90;;;;;;5056651;28;20064;-63
2023/05/01 06:30:55;;;;;;;5.93;2.78;;;;;;;;;;5063589;28;20047;-60
2023/05/01 06:33:25;;;;;;;7.97;2.78;;;12.00;99.90;;;;;;5073328;28;20048;-60
2023/05/01 06:36:03;;;;;;;10.60;2.88;;;11.40;99.90;;;;;;5054850;28;20040;-60
2023/05/01 06:38:34;;;;;;;5.63;3.13;;;11.40;99.90;;;;;;5053294;28;20043;-60
2023/05/01 06:41:08;;;;;;;4.95;2.70;;;11.40;99.90;;;;;;5071980;28;20047;-60
2023/05/01 06:43:36;;;;;;;12.23;3.20;;;11.40;99.90;;;;;;5060395;28;20045;-61
2023/05/01 06:46:04;;;;;;;6.30;3.05;;;11.50;99.90;;;;;;5062594;28;20048;-60
2023/05/01 06:48:31;;;;;;;7.60;3.10;;;11.50;99.90;;;;;;5054306;28;20048;-59
2023/05/01 06:50:59;;;;;;;9.45;3.95;;;11.50;99.90;;;;;;5044831;28;20491;-60
2023/05/01 06:53:27;;;;;;;10.88;4.18;;;11.50;99.90;;;;;;5036049;28;20393;-60
2023/05/01 06:55:55;;;;;;;6.43;3.10;;;11.50;99.90;;;;;;5023106;28;20057;-58
2023/05/01 06:58:23;;;;;;;9.70;4.63;;;11.60;99.90;;;;;;5017355;28;20041;-59
2023/05/01 07:00:53;;;;;;;12.05;5.32;;;11.60;99.90;;;;;;5033105;28;20564;-61
2023/05/01 07:03:21;;;;;;;8.25;4.15;;;11.60;99.90;;;;;;5031900;28;20042;-60
2023/05/01 07:05:49;;;;;;;10.13;4.95;;;11.70;99.90;;;;;;5026925;28;20371;-60
2023/05/01 07:08:17;;;;;;;6.65;4.28;;;11.70;99.90;;;;;;5043086;28;20045;-60
2023/05/01 07:10:45;;;;;;;12.00;4.85;;;11.80;99.90;;;;;;5042858;28;20068;-60
2023/05/01 07:13:13;;;;;;;11.30;4.45;;;11.80;99.90;;;;;;5043672;28;20037;-60
2023/05/01 07:15:40;;;;;;;9.88;4.22;;;11.80;99.90;;;;;;5021110;28;20041;-60
2023/05/01 07:18:08;;;;;;;6.53;4.00;;;11.90;99.90;;;;;;5029791;28;20041;-61
2023/05/01 07:20:36;;;;;;;8.45;4.50;;;11.80;99.90;;;;;;5023780;28;20053;-59
2023/05/01 07:23:04;;;;;;;8.82;4.85;;;11.90;99.90;;;;;;5038884;28;20204;-59
2023/05/01 07:25:40;;;;;;;9.35;5.20;;;11.90;99.90;;;;;;5049926;28;20412;-61
2023/05/01 07:28:07;;;;;;;14.07;5.90;;;12.00;99.90;;;;;;5046582;28;20067;-60
2023/05/01 07:30:36;;;;;;;12.73;5.85;;;12.00;99.90;;;;;;5033467;28;20397;-60
2023/05/01 07:33:06;;;;;;;7.47;5.13;;;12.00;99.90;;;;;;5038479;28;20396;-61
2023/05/01 07:35:34;;;;;;;9.88;5.30;;;12.10;99.90;;;;;;5044023;28;20045;-59
2023/05/01 07:38:05;;;;;;;7.93;4.47;;;12.20;99.90;;;;;;5019723;28;20041;-59
2023/05/01 07:40:33;;;;;;;10.13;4.63;;;12.30;99.90;;;;;;5048688;28;20053;-61
2023/05/01 07:43:01;;;;;;;6.70;4.53;;;12.20;99.90;;;;;;5045287;28;20045;-59
2023/05/01 07:45:29;;;;;;;11.77;5.50;;;12.30;99.90;;;;;;5045579;28;20049;-59
2023/05/01 07:47:57;;;;;;;11.07;6.60;;;12.30;99.90;;;;;;5049158;28;20049;-63
2023/05/01 07:50:25;;;;;;;11.73;7.28;;;12.30;99.90;;;;;;5023906;28;20057;-61
2023/05/01 07:52:53;;;;;;;12.82;8.57;;;12.30;99.90;;;;;;5019730;28;20068;-60
2023/05/01 07:55:22;;;;;;;18.20;10.38;;;12.40;99.90;;;;;;5049774;28;20400;-60
2023/05/01 07:57:52;;;;;;;17.00;10.25;;;12.30;99.90;;;;;;5039874;28;20041;-62
2023/05/01 08:00:20;;;;;;;19.60;11.10;;;;;;;;;;5044896;28;20049;-59
2023/05/01 08:02:50;;;;;;;21.40;12.07;;;12.20;99.90;;;;;;5045873;28;20520;-62
2023/05/01 08:05:18;;;;;;;22.80;12.52;;;12.20;99.90;;;;;;5043451;28;20048;-60
2023/05/01 08:07:46;;;;;;;18.00;10.75;;;12.20;99.90;;;;;;5030515;28;20038;-59
2023/05/01 08:10:14;;;;;;;18.35;11.90;;;12.30;99.90;;;;;;5029406;28;20048;-61
2023/05/01 08:12:42;;;;;;;18.50;11.80;;;12.30;99.90;;;;;;5048505;28;20045;-61
2023/05/01 08:15:09;;;;;;;17.92;11.45;;;12.40;99.90;;;;;;5024066;28;20457;-60
2023/05/01 08:17:38;;;;;;;16.10;10.10;;;12.40;99.90;;;;;;5044533;28;20496;-59
2023/05/01 08:20:08;;;;;;;16.33;10.65;;;12.50;99.90;;;;;;5048998;28;20041;-61
2023/05/01 08:22:36;;;;;;;22.02;11.30;;;12.50;99.90;;;;;;5035068;28;20049;-60
2023/05/01 08:25:04;;;;;;;18.27;11.35;;;12.50;99.90;;;;;;5030684;28;20045;-60
2023/05/01 08:27:35;;;;;;;20.75;11.25;;;12.50;99.90;;;;;;5045794;28;20061;-60
2023/05/01 08:30:03;;;;;;;20.58;10.95;;;12.50;99.90;;;;;;5044744;28;20056;-59
2023/05/01 08:32:31;;;;;;;19.10;10.35;;;12.60;99.90;;;;;;5042784;28;20053;-61
2023/05/01 08:34:58;;;;;;;20.70;11.30;;;12.70;99.90;;;;;;5031103;28;20041;-60
2023/05/01 08:37:26;;;;;;;15.13;10.25;;;12.80;99.90;;;;;;5040115;28;20410;-61
2023/05/01 08:39:54;;;;;;;17.88;10.90;;;12.80;99.90;;;;;;5045513;28;20056;-60
2023/05/01 08:42:23;;;;;;;20.35;10.90;;;12.90;99.90;;;;;;5040645;28;20143;-61
2023/05/01 08:44:54;;;;;;;16.60;11.32;;;12.90;99.90;;;;;;5048297;28;20045;-60
2023/05/01 08:47:21;;;;;;;14.82;10.40;;;13.00;99.90;;;;;;5042655;28;20045;-59
2023/05/01 08:49:51;;;;;;;17.00;10.05;;;13.10;99.90;;;;;;5043453;28;20049;-61
2023/05/01 08:52:21;;;;;;;15.07;8.63;;;13.20;99.90;;;;;;5036925;28;20053;-60
2023/05/01 08:54:49;;;;;;;;;;;13.30;99.90;;;;;;5005065;28;20481;-61
2023/05/01 08:57:17;;;;;;;13.18;7.55;;;13.40;99.90;;;;;;5030005;28;20363;-60
2023/05/01 08:59:47;;;;;;;10.80;7.53;;;13.40;99.90;;;;;;5036251;28;20598;-61
2023/05/01 09:02:14;;;;;;;11.57;8.35;;;13.40;99.90;;;;;;5048356;28;20048;-60
2023/05/01 09:04:42;;;;;;;12.10;8.38;;;13.40;99.90;;;;;;5048479;28;20499;-62
2023/05/01 09:07:11;;;;;;;11.07;9.13;;;13.40;99.90;;;;;;5034570;28;20490;-61
2023/05/01 09:09:42;;;;;;;14.23;9.48;;;13.40;99.90;;;;;;5013132;28;20064;-62
2023/05/01 09:12:28;;;;;;;12.50;8.40;;;13.50;99.90;;;;;;5037990;28;20049;-62
2023/05/01 09:14:56;;;;;;;12.90;9.38;;;13.40;99.90;;;;;;5022992;28;20045;-61
2023/05/01 09:17:24;;;;;;;15.38;8.65;;;13.50;99.90;;;;;;5032977;28;20392;-60
2023/05/01 09:19:52;;;;;;;11.45;8.25;;;13.50;99.90;;;;;;5044998;28;20041;-59
2023/05/01 09:22:20;;;;;;;9.93;7.70;;;13.50;99.90;;;;;;5035597;28;20052;-60
2023/05/01 09:24:48;;;;;;;11.57;7.93;;;13.50;99.90;;;;;;5029731;28;20037;-59
2023/05/01 09:27:16;;;;;;;15.90;9.48;;;;;;;;;;5046878;28;20060;-60
2023/05/01 09:29:46;;;;;;;13.27;9.68;;;13.40;99.90;;;;;;5015434;28;20048;-62
2023/05/01 09:32:21;;;;;;;;;;;13.30;99.90;;;;;;5029686;28;20045;-60
2023/05/01 09:34:49;;;;;;;22.55;11.40;;;13.30;99.90;;;;;;5013417;28;19921;-61
2023/05/01 09:37:27;;;;;;;16.77;11.45;;;13.20;99.90;;;;;;5027731;28;20049;-61
2023/05/01 09:40:13;;;;;;;18.00;11.30;;;13.10;99.90;;;;;;5036558;28;20049;-63
2023/05/01 09:42:50;;;;;;;16.63;10.13;;;13.20;99.90;;;;;;5042600;28;20124;-61
2023/05/01 09:45:18;;;;;;;10.30;7.43;;;13.20;99.90;;;;;;5028059;28;20053;-62
2023/05/01 09:47:46;;;;;;;10.50;6.55;;;;;;;;;;5032759;28;20614;-61
2023/05/01 09:50:31;;;;;;;9.52;6.43;;;13.30;99.90;;;;;;5046598;28;20068;-61
2023/05/01 09:53:10;;;;;;;10.73;6.03;;;13.30;99.90;;;;;;5039352;28;20033;-62
2023/05/01 09:55:37;;;;;;;8.02;5.43;;;13.30;99.90;;;;;;5032779;28;20049;-60
2023/05/01 09:58:05;;;;;;;4.43;3.92;;;13.20;99.90;;;;;;5027851;28;20041;-60
2023/05/01 10:00:48;;;;;;;6.78;5.07;;;13.20;99.90;;;;;;5026671;28;20057;-61
2023/05/01 10:03:16;;;;;;;7.57;4.53;;;13.30;99.90;;;;;;5034233;28;20046;-59
2023/05/01 10:05:44;;;;;;;10.02;4.78;;;13.40;99.90;;;;;;5042338;28;20045;-60
2023/05/01 10:08:13;;;;;;;8.93;5.80;;;13.50;99.90;;;;;;5038319;28;20049;-62
2023/05/01 10:10:45;;;;;;;6.83;4.60;;;13.60;99.90;;;;;;5045202;28;20863;-63
2023/05/01 10:13:17;;;;;;;5.10;3.88;;;14.00;99.90;;;;;;5033595;28;20290;-61
2023/05/01 10:15:49;;;;;;;4.75;4.03;;;14.00;99.90;;;;;;5047514;28;20400;-60
2023/05/01 10:18:17;;;;;;;4.93;4.00;;;14.30;99.90;;;;;;5044818;28;20049;-61
2023/05/01 10:20:46;;;;;;;8.75;4.47;;;;;;;;;;5028081;28;20053;-61
2023/05/01 10:23:13;;;;;;;5.78;4.30;;;14.80;99.90;;;;;;5039983;28;20049;-61
2023/05/01 10:25:42;;;;;;;4.25;3.30;;;14.90;99.90;;;;;;5029972;28;20069;-62
2023/05/01 10:28:11;;;;;;;4.03;3.50;;;15.10;99.90;;;;;;5035067;28;20048;-60
2023/05/01 10:30:40;;;;;;;3.88;3.20;;;15.10;99.90;;;;;;5046285;28;20044;-61
2023/05/01 10:33:07;;;;;;;3.05;2.75;;;15.30;99.90;;;;;;5045837;28;20049;-61
2023/05/01 10:35:39;;;;;;;2.67;2.13;;;15.40;99.90;;;;;;5047413;28;20054;-61
2023/05/01 10:38:32;;;;;;;2.38;2.05;;;15.50;99.90;;;;;;5037648;28;20044;-62
2023/05/01 10:41:00;;;;;;;4.60;2.70;;;15.50;99.90;;;;;;5026295;28;20046;-62
2023/05/01 10:43:30;;;;;;;;;;;15.70;99.90;;;;;;5039874;28;20060;-60
2023/05/01 10:46:06;;;;;;;4.40;3.97;;;15.80;99.90;;;;;;5036229;28;19921;-61
2023/05/01 10:48:41;;;;;;;5.30;3.55;;;15.90;99.90;;;;;;5045469;28;20124;-61
2023/05/01 10:51:19;;;;;;;5.80;3.70;;;15.90;99.90;;;;;;5051082;28;20049;-61
2023/05/01 10:54:13;;;;;;;4.15;3.08;;;15.90;99.90;;;;;;5035518;28;20517;-61
2023/05/01 10:56:42;;;;;;;5.35;3.80;;;15.90;99.90;;;;;;5031807;28;20072;-62
2023/05/01 10:59:11;;;;;;;4.68;3.60;;;16.00;99.90;;;;;;5038311;28;20075;-61
2023/05/01 11:01:44;;;;;;;4.75;3.92;;;16.00;99.90;;;;;;5040945;28;20045;-62
2023/05/01 11:04:21;;;;;;;4.45;3.80;;;16.00;99.90;;;;;;5031974;28;20547;-61
2023/05/01 11:07:01;;;;;;;4.38;3.20;;;16.00;99.90;;;;;;5043898;28;20796;-60
2023/05/01 11:09:38;;;;;;;3.55;3.25;;;15.90;99.90;;;;;;5035667;28;20040;-62
2023/05/01 11:12:13;;;;;;;4.75;3.80;;;15.80;99.90;;;;;;5035671;28;20049;-60
2023/05/01 11:14:53;;;;;;;4.45;3.55;;;15.80;99.90;;;;;;5016372;28;20113;-62
2023/05/01 11:17:41;;;;;;;7.63;4.07;;;15.60;99.90;;;;;;5048205;28;20060;-61
2023/05/01 11:20:23;;;;;;;6.60;4.07;;;15.60;99.90;;;;;;5048080;28;20515;-62
2023/05/01 11:22:52;;;;;;;3.80;3.40;;;15.40;99.90;;;;;;5037372;28;20504;-60
2023/05/01 11:25:25;;;;;;;3.40;3.05;;;15.20;99.90;;;;;;5041387;28;20038;-62
2023/05/01 11:27:55;;;;;;;4.45;2.65;;;15.20;99.90;;;;;;5044754;28;20053;-61
2023/05/01 11:30:24;;;;;;;3.08;2.55;;;15.10;99.90;;;;;;5041218;28;20037;-61
2023/05/01 11:32:51;;;;;;;5.10;2.63;;;15.10;99.90;;;;;;5038362;28;20235;-60
2023/05/01 11:35:20;;;;;;;3.22;2.47;;;15.10;99.90;;;;;;5020597;28;20044;-61
2023/05/01 11:37:54;;;;;;;3.35;2.78;;;15.20;99.90;;;;;;5041491;28;20508;-61
2023/05/01 11:40:27;;;;;;;2.60;2.13;;;15.20;99.90;;;;;;5048138;28;20086;-62
2023/05/01 11:43:05;;;;;;;2.42;2.22;;;15.50;99.90;;;;;;5036572;28;20049;-63
2023/05/01 11:45:34;;;;;;;1.95;1.85;;;15.50;99.90;;;;;;5031796;28;20046;-61
2023/05/01 11:48:02;;;;;;;4.10;2.00;;;15.80;99.90;;;;;;5029913;28;20049;-62
2023/05/01 11:50:34;;;;;;;4.00;2.40;;;16.10;99.90;;;;;;5012234;28;20551;-62
2023/05/01 11:53:16;;;;;;;3.88;2.58;;;16.10;99.90;;;;;;5039057;28;20045;-61
2023/05/01 11:55:44;;;;;;;4.18;2.80;;;15.90;99.90;;;;;;5024544;28;20405;-61
2023/05/01 11:58:12;;;;;;;2.88;2.53;;;15.90;99.90;;;;;;5040045;28;20607;-61
2023/05/01 12:00:42;;;;;;;3.15;2.38;;;15.70;99.90;;;;;;5049238;28;20608;-59
2023/05/01 12:03:11;;;;;;;2.40;1.92;;;15.60;99.90;;;;;;5045022;28;20049;-61
2023/05/01 12:05:41;;;;;;;;;;;15.40;99.90;;;;;;5049553;28;20053;-61
2023/05/01 12:08:19;;;;;;;3.42;1.30;;;15.40;99.90;;;;;;5040714;28;19932;-62
2023/05/01 12:10:54;;;;;;;2.92;1.65;;;15.40;99.90;;;;;;5034688;28;20044;-60
2023/05/01 12:13:26;;;;;;;3.17;1.30;;;15.50;99.90;;;;;;5039111;28;20420;-61
2023/05/01 12:15:56;;;;;;;8.65;1.73;;;15.50;99.90;;;;;;5048951;28;20041;-61
2023/05/01 12:18:23;;;;;;;1.15;0.85;;;15.60;99.90;;;;;;5032017;28;20057;-62
2023/05/01 12:20:54;;;;;;;2.58;1.17;;;15.80;99.90;;;;;;5034229;28;20060;-60
2023/05/01 12:23:36;;;;;;;3.90;1.23;;;15.80;99.90;;;;;;5040511;28;20375;-60
2023/05/01 12:26:24;;;;;;;1.75;1.10;;;15.80;99.90;;;;;;5030232;28;20060;-62
2023/05/01 12:28:57;;;;;;;3.38;1.08;;;15.80;99.90;;;;;;5018008;28;20050;-60
2023/05/01 12:31:26;;;;;;;0.80;0.80;;;15.80;99.90;;;;;;5030179;28;20072;-62
2023/05/01 12:34:06;;;;;;;2.40;0.97;;;15.70;99.90;;;;;;5033534;28;20068;-62
2023/05/01 12:36:36;;;;;;;1.10;0.85;;;15.70;99.90;;;;;;5029542;28;20386;-61
2023/05/01 12:39:08;;;;;;;3.42;1.33;;;15.60;99.90;;;;;;5039563;28;20056;-62
2023/05/01 12:41:36;;;;;;;;;;;15.40;99.90;;;;;;5030400;28;20386;-63
2023/05/01 12:44:24;;;;;;;1.17;1.05;;;15.20;99.90;;;;;;5026594;28;19936;-61
2023/05/01 12:46:52;;;;;;;2.45;1.10;;;15.20;99.90;;;;;;5047921;28;20056;-62
2023/05/01 12:49:22;;;;;;;2.35;0.90;;;15.10;99.90;;;;;;5045606;28;20385;-62
2023/05/01 12:51:51;;;;;;;2.92;1.25;;;16.80;99.90;;;;;;5045959;28;20059;-62
2023/05/01 12:54:38;;;;;;;1.25;1.00;;;15.10;99.90;;;;;;5030341;28;20649;-61
2023/05/01 12:57:09;;;;;;;3.42;1.27;;;15.10;99.90;;;;;;5036848;28;20048;-60
2023/05/01 12:59:38;;;;;;;1.55;1.33;;;15.00;99.90;;;;;;5036697;28;20052;-62
2023/05/01 13:02:09;;;;;;;3.30;1.20;;;14.90;99.90;;;;;;5046793;28;20531;-61
2023/05/01 13:04:38;;;;;;;1.02;0.60;;;14.90;99.90;;;;;;5033747;28;20299;-62
2023/05/01 13:07:19;;;;;;;1.20;0.68;;;14.90;99.90;;;;;;5031685;28;20404;-61